Time;durP1;ratioP1;P1;durP2;ratioP2;P2;SDS_P1;SDS_P2;PMS_P1;PMS_P2;Temp;Humidity;BMP_temperature;BMP_pressure;BME280_temperature;BME280_humidity;BME280_pressure;Samples;Min_cycle;Max_cycle;Signal;HPM_P1;HPM_P2
2021/03/18 00:01:36;;;;;;;1.80;0.30;;;2.60;92.90;;;;;;4898163;29;20048;-75
2021/03/18 00:04:04;;;;;;;2.27;0.57;;;2.50;92.90;;;;;;4898037;29;20127;-76
2021/03/18 00:06:33;;;;;;;3.10;0.30;;;2.60;92.90;;;;;;4897881;29;20072;-76
2021/03/18 00:09:00;;;;;;;0.60;0.20;;;2.50;92.90;;;;;;4892827;29;20123;-75
2021/03/18 00:11:27;;;;;;;2.73;0.33;;;2.50;92.90;;;;;;4897826;29;20104;-75
2021/03/18 00:13:56;;;;;;;1.53;0.20;;;2.50;92.90;;;;;;4895836;29;20041;-75
2021/03/18 00:16:25;;;;;;;1.43;0.20;;;2.50;92.90;;;;;;4897082;29;20519;-75
2021/03/18 00:18:53;;;;;;;1.60;0.30;;;2.40;93.00;;;;;;4896940;29;20123;-78
2021/03/18 00:21:22;;;;;;;1.73;0.30;;;2.50;93.00;;;;;;4896926;29;20049;-76
2021/03/18 00:23:49;;;;;;;2.20;0.40;;;2.40;92.90;;;;;;4881494;29;20040;-76
2021/03/18 00:26:30;;;;;;;1.83;0.40;;;2.40;92.90;;;;;;4885469;29;20045;-76
2021/03/18 00:28:58;;;;;;;0.43;0.20;;;2.40;92.90;;;;;;4894118;29;20523;-77
2021/03/18 00:31:34;;;;;;;2.10;0.30;;;2.40;93.20;;;;;;4881414;29;20048;-75
2021/03/18 00:34:02;;;;;;;0.67;0.20;;;2.40;92.90;;;;;;4907780;29;20144;-76
2021/03/18 00:36:31;;;;;;;2.50;0.40;;;2.40;92.90;;;;;;4894506;29;20497;-75
2021/03/18 00:38:59;;;;;;;0.87;0.30;;;2.40;93.00;;;;;;4896122;29;20056;-75
2021/03/18 00:41:27;;;;;;;0.80;0.30;;;2.40;93.00;;;;;;4895346;29;20120;-76
2021/03/18 00:43:53;;;;;;;1.67;0.23;;;2.40;93.00;;;;;;4880878;29;20362;-76
2021/03/18 00:46:21;;;;;;;1.87;0.40;;;2.40;93.00;;;;;;4880840;29;20041;-75
2021/03/18 00:48:52;;;;;;;1.07;0.20;;;2.40;93.30;;;;;;4895729;29;20040;-76
2021/03/18 00:51:19;;;;;;;2.83;0.50;;;2.40;93.00;;;;;;4894022;29;20041;-75
2021/03/18 00:53:50;;;;;;;3.43;0.50;;;2.40;93.00;;;;;;4865197;29;20049;-76
2021/03/18 00:56:22;;;;;;;1.00;0.30;;;2.40;93.00;;;;;;4883584;29;20564;-70
2021/03/18 00:58:57;;;;;;;3.23;0.47;;;2.30;93.00;;;;;;4875923;29;20482;-70
2021/03/18 01:01:27;;;;;;;6.10;0.90;;;2.30;93.00;;;;;;4863250;29;20081;-70
2021/03/18 01:03:57;;;;;;;5.13;0.90;;;2.30;92.90;;;;;;4892840;29;20047;-70
2021/03/18 01:06:27;;;;;;;1.70;0.60;;;2.30;92.90;;;;;;4887907;29;20063;-70
2021/03/18 01:08:56;;;;;;;5.83;0.97;;;2.30;93.00;;;;;;4895059;29;20043;-77
2021/03/18 01:11:26;;;;;;;8.33;1.43;;;2.30;92.90;;;;;;4889839;29;20049;-76
2021/03/18 01:14:03;;;;;;;2.37;0.70;;;2.20;92.90;;;;;;4896005;29;20048;-70
2021/03/18 01:16:34;;;;;;;4.83;0.80;;;2.20;92.90;;;;;;4879483;29;20523;-69
2021/03/18 01:19:04;;;;;;;3.87;0.67;;;2.20;92.90;;;;;;4895954;29;20504;-70
2021/03/18 01:21:34;;;;;;;3.60;0.80;;;2.20;93.00;;;;;;4871379;29;20055;-70
2021/03/18 01:24:02;;;;;;;2.40;0.53;;;2.20;93.00;;;;;;4889088;29;20055;-76
2021/03/18 01:26:29;;;;;;;2.63;0.60;;;2.20;93.00;;;;;;4896325;29;20489;-76
2021/03/18 01:28:55;;;;;;;3.73;0.70;;;2.20;93.00;;;;;;4880980;29;20473;-75
2021/03/18 01:31:22;;;;;;;1.33;0.60;;;2.10;92.90;;;;;;4888160;29;20504;-75
2021/03/18 01:33:49;;;;;;;2.37;0.70;;;2.10;93.00;;;;;;4880779;29;20131;-74
2021/03/18 01:36:15;;;;;;;1.47;0.60;;;2.10;93.00;;;;;;4896209;29;20052;-76
2021/03/18 01:38:44;;;;;;;0.97;0.40;;;2.10;93.00;;;;;;4897558;29;20100;-76
2021/03/18 01:41:12;;;;;;;1.10;0.40;;;2.10;93.10;;;;;;4896038;29;20040;-75
2021/03/18 01:43:39;;;;;;;1.47;0.40;;;2.10;93.10;;;;;;4897117;29;20092;-75
2021/03/18 01:46:06;;;;;;;2.53;0.50;;;2.10;93.10;;;;;;4876748;29;20045;-70
2021/03/18 01:48:33;;;;;;;1.23;0.40;;;2.00;93.10;;;;;;4891216;29;20120;-70
2021/03/18 01:51:00;;;;;;;2.97;0.70;;;2.00;93.40;;;;;;4895440;29;20052;-70
2021/03/18 01:53:28;;;;;;;1.33;0.40;;;2.10;93.20;;;;;;4888706;29;20051;-70
2021/03/18 01:55:57;;;;;;;2.43;0.50;;;2.10;93.30;;;;;;4894899;29;20044;-70
2021/03/18 01:58:24;;;;;;;2.00;0.70;;;2.10;93.20;;;;;;4889995;29;20410;-70
2021/03/18 02:00:54;;;;;;;2.00;0.60;;;2.10;93.20;;;;;;4878518;29;20048;-70
2021/03/18 02:03:21;;;;;;;1.20;0.40;;;2.10;93.10;;;;;;4896027;29;20143;-70
2021/03/18 02:05:48;;;;;;;3.67;0.60;;;2.10;93.20;;;;;;4890848;29;20044;-70
2021/03/18 02:08:15;;;;;;;1.43;0.50;;;2.20;93.20;;;;;;4870715;29;20053;-70
2021/03/18 02:10:42;;;;;;;1.60;0.67;;;2.20;93.20;;;;;;4892835;29;20072;-70
2021/03/18 02:13:12;;;;;;;2.00;0.60;;;2.20;93.20;;;;;;4885584;29;20379;-70
2021/03/18 02:15:47;;;;;;;1.10;0.40;;;2.20;93.20;;;;;;4894657;29;20037;-76
2021/03/18 02:18:31;;;;;;;0.80;0.40;;;2.20;93.20;;;;;;4900761;29;20040;-75
2021/03/18 02:21:07;;;;;;;3.03;0.60;;;2.30;93.20;;;;;;4900287;29;20458;-75
2021/03/18 02:23:52;;;;;;;5.37;0.87;;;2.30;93.20;;;;;;4900327;29;20052;-76
2021/03/18 02:26:33;;;;;;;1.30;0.50;;;2.30;93.10;;;;;;4892479;29;20137;-70
2021/03/18 02:29:57;;;;;;;1.20;0.60;;;2.30;93.10;;;;;;4894863;29;20049;-70
2021/03/18 02:32:46;;;;;;;4.90;0.80;;;2.30;93.10;;;;;;4839852;29;20053;-71
2021/03/18 02:35:28;;;;;;;2.23;0.70;;;2.30;93.20;;;;;;4826143;29;20057;-75
2021/03/18 02:38:10;;;;;;;3.07;0.40;;;2.30;93.20;;;;;;4885611;29;20084;-76
2021/03/18 02:40:48;;;;;;;1.08;0.50;;;2.30;93.20;;;;;;4889525;29;20497;-75
2021/03/18 02:43:17;;;;;;;1.70;0.40;;;2.20;93.20;;;;;;4900710;29;20044;-76
2021/03/18 02:45:50;;;;;;;1.63;0.50;;;2.20;93.20;;;;;;4900600;29;20049;-76
2021/03/18 02:48:27;;;;;;;1.87;0.50;;;2.20;93.20;;;;;;4900941;29;20037;-76
2021/03/18 02:50:55;;;;;;;1.30;0.33;;;2.20;93.20;;;;;;4899647;29;20056;-75
2021/03/18 02:53:27;;;;;;;0.63;0.30;;;2.20;93.30;;;;;;4900786;29;20505;-75
2021/03/18 02:55:56;;;;;;;1.07;0.40;;;2.20;93.30;;;;;;4912214;29;20049;-76
2021/03/18 02:58:26;;;;;;;2.03;0.63;;;2.20;93.30;;;;;;4895927;29;20060;-77
2021/03/18 03:00:56;;;;;;;2.30;0.40;;;2.30;93.30;;;;;;4898718;29;20096;-76
2021/03/18 03:03:39;;;;;;;2.77;0.47;;;2.30;93.60;;;;;;4896027;29;20511;-76
2021/03/18 03:06:08;;;;;;;1.63;0.50;;;2.30;93.30;;;;;;4883670;29;20128;-75
2021/03/18 03:08:36;;;;;;;1.73;0.43;;;2.30;93.30;;;;;;4898794;29;20048;-75
2021/03/18 03:11:04;;;;;;;3.00;0.60;;;2.40;93.30;;;;;;4899341;29;20048;-75
2021/03/18 03:13:35;;;;;;;1.30;0.40;;;2.40;93.30;;;;;;4900429;29;20049;-75
2021/03/18 03:16:05;;;;;;;1.67;0.50;;;2.40;93.30;;;;;;4898479;29;20049;-76
2021/03/18 03:18:33;;;;;;;0.77;0.40;;;2.50;93.30;;;;;;4897676;29;20052;-75
2021/03/18 03:21:01;;;;;;;2.00;0.50;;;2.50;93.30;;;;;;4897323;29;20064;-76
2021/03/18 03:23:31;;;;;;;2.23;0.57;;;2.50;93.20;;;;;;4893824;29;20518;-75
2021/03/18 03:25:59;;;;;;;1.87;0.53;;;2.50;93.20;;;;;;4896552;29;20481;-75
2021/03/18 03:28:28;;;;;;;1.80;0.87;;;2.50;93.20;;;;;;4893714;29;20055;-70
2021/03/18 03:30:56;;;;;;;1.50;0.83;;;2.50;93.30;;;;;;4896696;29;20048;-70
2021/03/18 03:33:23;;;;;;;2.30;0.60;;;2.50;93.30;;;;;;4898815;29;20445;-70
2021/03/18 03:35:51;;;;;;;0.97;0.50;;;2.50;93.30;;;;;;4887738;29;20056;-70
2021/03/18 03:38:18;;;;;;;2.20;0.50;;;2.50;93.30;;;;;;4897925;29;20068;-71
2021/03/18 03:40:46;;;;;;;1.53;0.50;;;2.50;93.30;;;;;;4891863;29;20113;-70
2021/03/18 03:43:15;;;;;;;2.30;0.70;;;2.50;93.30;;;;;;4897213;29;20486;-70
2021/03/18 03:45:42;;;;;;;1.80;0.50;;;2.50;93.30;;;;;;4880971;29;20052;-70
2021/03/18 03:48:09;;;;;;;2.33;0.80;;;2.50;93.30;;;;;;4896748;29;20552;-71
2021/03/18 03:50:37;;;;;;;1.00;0.40;;;2.50;93.40;;;;;;4895959;29;20048;-70
2021/03/18 03:53:26;;;;;;;1.20;0.40;;;2.50;93.40;;;;;;4897753;29;20552;-70
2021/03/18 03:55:55;;;;;;;1.50;0.40;;;2.50;93.30;;;;;;4897094;29;20053;-71
2021/03/18 03:58:44;;;;;;;1.03;0.40;;;2.50;93.30;;;;;;4894648;29;20064;-70
2021/03/18 04:01:19;;;;;;;1.50;0.40;;;2.60;93.30;;;;;;4897731;29;20044;-70
2021/03/18 04:03:47;;;;;;;1.97;0.77;;;2.60;93.20;;;;;;4892495;29;20402;-70
2021/03/18 04:06:15;;;;;;;2.60;0.57;;;2.60;93.20;;;;;;4897546;29;20037;-70
2021/03/18 04:08:44;;;;;;;3.13;0.80;;;2.60;93.20;;;;;;4887686;29;20064;-70
2021/03/18 04:11:13;;;;;;;1.20;0.50;;;2.60;93.20;;;;;;4894951;29;20041;-70
2021/03/18 04:13:42;;;;;;;2.20;0.60;;;2.50;93.20;;;;;;4893325;29;20104;-70
2021/03/18 04:16:08;;;;;;;1.83;0.67;;;2.50;93.20;;;;;;4892393;29;20044;-70
2021/03/18 04:18:40;;;;;;;1.13;0.47;;;2.50;93.30;;;;;;4895404;29;20076;-70
2021/03/18 04:21:08;;;;;;;1.63;0.50;;;2.40;93.20;;;;;;4894816;29;20059;-70
2021/03/18 04:23:37;;;;;;;1.60;0.60;;;2.40;93.30;;;;;;4881113;29;20079;-70
2021/03/18 04:26:04;;;;;;;1.03;0.60;;;2.30;93.30;;;;;;4896068;29;20048;-70
2021/03/18 04:28:33;;;;;;;2.07;0.80;;;2.30;93.30;;;;;;4880960;29;20565;-70
2021/03/18 04:31:00;;;;;;;2.83;0.60;;;2.30;93.40;;;;;;4877366;29;20044;-70
2021/03/18 04:33:28;;;;;;;2.63;0.83;;;2.20;93.70;;;;;;4886038;29;20055;-70
2021/03/18 04:35:57;;;;;;;2.93;0.80;;;2.20;93.40;;;;;;4893874;29;20045;-70
2021/03/18 04:38:28;;;;;;;1.53;0.60;;;2.20;93.40;;;;;;4873404;29;20068;-70
2021/03/18 04:40:56;;;;;;;3.10;0.80;;;2.20;93.40;;;;;;4893384;29;20037;-70
2021/03/18 04:43:24;;;;;;;1.60;0.80;;;2.30;93.40;;;;;;4891573;29;20108;-71
2021/03/18 04:45:53;;;;;;;1.77;0.50;;;2.30;93.40;;;;;;4893505;29;20043;-71
2021/03/18 04:48:21;;;;;;;2.40;0.70;;;2.30;93.60;;;;;;4889335;29;20040;-70
2021/03/18 04:50:48;;;;;;;2.07;0.60;;;2.30;93.40;;;;;;4889890;29;20041;-71
2021/03/18 04:53:17;;;;;;;1.73;0.40;;;2.40;93.40;;;;;;4888250;29;20044;-70
2021/03/18 04:55:45;;;;;;;2.33;0.87;;;2.40;93.30;;;;;;4895834;29;20052;-71
2021/03/18 04:58:11;;;;;;;1.80;0.40;;;2.40;93.30;;;;;;4890974;29;20147;-70
2021/03/18 05:00:39;;;;;;;1.50;0.57;;;2.40;93.30;;;;;;4891541;29;20092;-70
2021/03/18 05:03:08;;;;;;;1.10;0.40;;;2.40;93.30;;;;;;4888158;29;20045;-70
2021/03/18 05:05:36;;;;;;;1.67;0.50;;;2.50;93.30;;;;;;4896523;29;20052;-70
2021/03/18 05:08:04;;;;;;;1.73;0.63;;;2.60;93.30;;;;;;4896549;29;20048;-75
2021/03/18 05:10:34;;;;;;;1.23;0.60;;;2.60;93.40;;;;;;4897676;29;20120;-76
2021/03/18 05:13:05;;;;;;;1.87;0.60;;;2.60;93.30;;;;;;4892334;29;20057;-75
2021/03/18 05:15:34;;;;;;;1.50;0.50;;;2.60;93.40;;;;;;4908705;29;20044;-76
2021/03/18 05:18:04;;;;;;;1.30;0.50;;;2.70;93.40;;;;;;4897390;29;20108;-75
2021/03/18 05:20:31;;;;;;;1.57;0.50;;;2.70;93.30;;;;;;4887513;29;20040;-76
2021/03/18 05:22:58;;;;;;;2.37;0.70;;;2.70;93.30;;;;;;4880844;29;20041;-76
2021/03/18 05:25:29;;;;;;;2.40;0.40;;;2.80;93.30;;;;;;4897680;29;20052;-76
2021/03/18 05:27:57;;;;;;;1.00;0.40;;;2.80;93.20;;;;;;4896770;29;20076;-75
2021/03/18 05:30:25;;;;;;;3.17;0.50;;;2.90;93.50;;;;;;4897794;29;20083;-75
2021/03/18 05:32:52;;;;;;;3.03;0.80;;;2.90;93.20;;;;;;4896623;29;20048;-75
2021/03/18 05:35:35;;;;;;;2.10;0.60;;;2.80;93.10;;;;;;4896278;29;20053;-75
2021/03/18 05:38:02;;;;;;;2.30;0.70;;;2.80;93.10;;;;;;4896578;29;20076;-75
2021/03/18 05:40:28;;;;;;;2.77;0.80;;;2.80;93.10;;;;;;4897796;29;20044;-76
2021/03/18 05:42:57;;;;;;;1.93;0.70;;;2.80;93.10;;;;;;4896559;29;20124;-76
2021/03/18 05:45:24;;;;;;;1.90;0.60;;;2.80;93.10;;;;;;4896591;29;20394;-76
2021/03/18 05:47:51;;;;;;;3.43;0.87;;;2.80;93.10;;;;;;4882796;29;20105;-76
2021/03/18 05:50:20;;;;;;;3.13;1.10;;;2.90;93.10;;;;;;4895398;29;20101;-76
2021/03/18 05:52:49;;;;;;;3.20;0.90;;;2.90;93.10;;;;;;4884190;29;20088;-76
2021/03/18 05:55:16;;;;;;;3.07;0.90;;;2.90;93.10;;;;;;4903977;29;20040;-76
2021/03/18 05:57:47;;;;;;;2.37;1.00;;;2.90;93.10;;;;;;4886814;29;20112;-76
2021/03/18 06:00:15;;;;;;;4.23;1.00;;;2.90;93.10;;;;;;4903843;29;20040;-76
2021/03/18 06:02:48;;;;;;;3.53;1.60;;;2.90;93.10;;;;;;4902089;29;20083;-76
2021/03/18 06:05:17;;;;;;;3.17;1.10;;;2.90;93.10;;;;;;4899064;29;20386;-76
2021/03/18 06:07:45;;;;;;;2.63;1.07;;;2.90;93.20;;;;;;4898551;29;20037;-75
2021/03/18 06:10:15;;;;;;;2.07;0.80;;;2.90;93.20;;;;;;4903774;29;20044;-76
2021/03/18 06:12:42;;;;;;;2.00;0.87;;;2.90;93.20;;;;;;4898169;29;20060;-76
2021/03/18 06:15:12;;;;;;;3.73;1.30;;;2.90;93.20;;;;;;4898034;29;20053;-76
2021/03/18 06:17:39;;;;;;;2.03;1.10;;;2.90;93.20;;;;;;4893799;29;20056;-76
2021/03/18 06:20:11;;;;;;;3.17;1.10;;;2.90;93.20;;;;;;4902577;29;20055;-76
2021/03/18 06:22:41;;;;;;;4.50;1.10;;;3.00;93.20;;;;;;4903568;29;20072;-76
2021/03/18 06:25:23;;;;;;;5.97;1.33;;;3.00;93.20;;;;;;4902593;29;20103;-76
2021/03/18 06:28:09;;;;;;;;;;;3.00;93.20;;;;;;4903095;29;20040;-76
2021/03/18 06:30:37;;;;;;;3.93;1.30;;;3.00;93.20;;;;;;4903486;29;20300;-76
2021/03/18 06:33:48;;;;;;;3.57;1.37;;;3.00;93.20;;;;;;4901992;29;20045;-76
2021/03/18 06:36:33;;;;;;;4.27;0.97;;;3.00;93.20;;;;;;4900385;29;20424;-76
2021/03/18 06:39:07;;;;;;;3.47;0.90;;;3.00;93.20;;;;;;4899205;29;20045;-76
2021/03/18 06:41:41;;;;;;;2.03;1.03;;;3.10;93.20;;;;;;4897182;29;20055;-76
2021/03/18 06:44:30;;;;;;;3.05;1.00;;;3.10;93.20;;;;;;4903348;29;20519;-76
2021/03/18 06:47:06;;;;;;;3.13;1.33;;;3.20;93.20;;;;;;4903553;29;20044;-76
2021/03/18 06:49:33;;;;;;;2.47;0.90;;;3.20;93.20;;;;;;4899126;29;20089;-76
2021/03/18 06:52:13;;;;;;;2.33;1.00;;;3.20;93.20;;;;;;4893287;29;20092;-76
2021/03/18 06:54:42;;;;;;;3.90;1.17;;;3.30;93.20;;;;;;4902420;29;20041;-76
2021/03/18 06:57:10;;;;;;;2.00;0.90;;;3.30;93.20;;;;;;4902297;29;20048;-76
2021/03/18 06:59:41;;;;;;;2.70;0.80;;;3.40;93.20;;;;;;4874055;29;20067;-76
2021/03/18 07:02:10;;;;;;;5.43;1.07;;;3.50;93.20;;;;;;4891169;29;20052;-76
2021/03/18 07:04:40;;;;;;;3.43;1.27;;;3.50;93.10;;;;;;4865286;29;20041;-76
2021/03/18 07:07:08;;;;;;;2.93;0.90;;;3.50;93.10;;;;;;4871926;29;20067;-76
2021/03/18 07:09:36;;;;;;;2.73;1.17;;;3.60;93.10;;;;;;4900396;29;20059;-76
2021/03/18 07:12:17;;;;;;;4.17;1.50;;;3.70;93.10;;;;;;4879399;29;20037;-76
2021/03/18 07:14:49;;;;;;;4.03;1.03;;;3.70;93.00;;;;;;4873674;29;20045;-76
2021/03/18 07:17:30;;;;;;;3.38;1.50;;;3.70;93.00;;;;;;4880335;29;20049;-76
2021/03/18 07:20:19;;;;;;;6.83;1.40;;;3.80;93.00;;;;;;4888776;29;20057;-76
2021/03/18 07:22:54;;;;;;;4.10;1.50;;;3.80;92.90;;;;;;4881019;29;20045;-76
2021/03/18 07:25:48;;;;;;;3.17;1.30;;;3.90;93.00;;;;;;4878998;29;20045;-76
2021/03/18 07:28:34;;;;;;;4.60;1.40;;;4.00;93.00;;;;;;4898365;29;20067;-76
2021/03/18 07:31:01;;;;;;;1.87;0.90;;;4.00;93.00;;;;;;4880655;29;20477;-76
2021/03/18 07:33:30;;;;;;;4.23;1.70;;;4.10;93.00;;;;;;4887189;29;20401;-76
2021/03/18 07:35:57;;;;;;;2.73;1.10;;;4.10;93.00;;;;;;4881870;29;20041;-75
2021/03/18 07:38:23;;;;;;;3.20;1.23;;;4.20;93.00;;;;;;4882205;29;20108;-76
2021/03/18 07:40:50;;;;;;;4.27;1.30;;;4.20;92.90;;;;;;4879691;29;20048;-76
2021/03/18 07:43:17;;;;;;;2.60;1.00;;;4.30;92.90;;;;;;4879579;29;20045;-76
2021/03/18 07:45:44;;;;;;;4.13;1.03;;;4.40;92.90;;;;;;4878446;29;20037;-77
2021/03/18 07:48:13;;;;;;;2.30;0.97;;;4.40;92.80;;;;;;4887293;29;20037;-77
2021/03/18 07:50:41;;;;;;;4.03;1.63;;;4.50;92.80;;;;;;4883057;29;20052;-76
2021/03/18 07:53:15;;;;;;;3.20;1.20;;;4.60;92.80;;;;;;4895207;29;20090;-76
2021/03/18 07:55:42;;;;;;;4.40;1.97;;;4.50;92.80;;;;;;4879634;29;20049;-77
2021/03/18 07:58:09;;;;;;;4.80;1.63;;;4.60;92.80;;;;;;4892215;29;20052;-76
2021/03/18 08:00:43;;;;;;;7.10;2.63;;;4.60;92.80;;;;;;4879553;29;20052;-76
2021/03/18 08:03:22;;;;;;;8.70;3.27;;;4.60;92.70;;;;;;4884367;29;20076;-76
2021/03/18 08:05:49;;;;;;;6.63;1.97;;;4.60;92.80;;;;;;4886692;29;20052;-77
2021/03/18 08:08:31;;;;;;;5.93;2.20;;;4.70;92.90;;;;;;4878749;29;20114;-76
2021/03/18 08:11:04;;;;;;;8.03;2.10;;;4.70;92.80;;;;;;4878970;29;20049;-76
2021/03/18 08:13:36;;;;;;;5.27;1.80;;;4.80;92.80;;;;;;4893509;29;20049;-75
2021/03/18 08:16:05;;;;;;;;;;;4.80;92.80;;;;;;4876913;29;20052;-75
2021/03/18 08:18:35;;;;;;;6.83;2.20;;;4.80;92.90;;;;;;4884470;29;19947;-75
2021/03/18 08:21:05;;;;;;;5.90;2.00;;;4.80;92.80;;;;;;4897885;29;20072;-76
2021/03/18 08:23:31;;;;;;;5.33;1.87;;;4.80;92.80;;;;;;4884598;29;20040;-76
2021/03/18 08:26:03;;;;;;;4.90;1.87;;;4.90;92.90;;;;;;4885684;29;20063;-76
2021/03/18 08:28:55;;;;;;;5.65;1.50;;;5.00;92.90;;;;;;4886851;29;20117;-76
2021/03/18 08:31:45;;;;;;;5.20;1.50;;;5.10;92.90;;;;;;4869538;29;20096;-76
2021/03/18 08:34:13;;;;;;;5.57;1.70;;;5.30;92.90;;;;;;4880001;29;20041;-76
2021/03/18 08:36:58;;;;;;;7.10;1.43;;;5.30;92.80;;;;;;4878313;29;20502;-77
2021/03/18 08:39:34;;;;;;;8.63;2.53;;;5.40;92.80;;;;;;4888186;29;20049;-75
2021/03/18 08:42:03;;;;;;;5.03;2.20;;;5.50;92.70;;;;;;4872572;29;20045;-76
2021/03/18 08:44:40;;;;;;;5.63;1.70;;;5.50;92.60;;;;;;4892744;29;20102;-77
2021/03/18 08:47:12;;;;;;;7.70;2.17;;;5.60;92.70;;;;;;4878251;29;20045;-76
2021/03/18 08:49:39;;;;;;;6.65;2.15;;;5.60;92.70;;;;;;4870480;29;20093;-75
2021/03/18 08:52:20;;;;;;;4.33;1.77;;;5.60;92.60;;;;;;4889960;29;20081;-75
2021/03/18 08:54:50;;;;;;;3.63;1.57;;;5.60;92.60;;;;;;4893422;29;20509;-75
2021/03/18 08:57:19;;;;;;;4.47;1.43;;;5.70;92.70;;;;;;4879399;29;20417;-76
2021/03/18 08:59:51;;;;;;;4.73;1.17;;;5.70;92.70;;;;;;4897253;29;20052;-75
2021/03/18 09:02:20;;;;;;;4.60;1.20;;;5.70;92.70;;;;;;4880894;29;20079;-76
2021/03/18 09:04:49;;;;;;;2.37;1.30;;;5.80;92.80;;;;;;4887610;29;20044;-75
2021/03/18 09:07:28;;;;;;;3.67;1.20;;;6.00;92.80;;;;;;4880163;29;20490;-76
2021/03/18 09:10:03;;;;;;;4.67;1.47;;;6.00;92.70;;;;;;4891254;29;20076;-76
2021/03/18 09:12:40;;;;;;;5.10;1.40;;;6.10;92.70;;;;;;4900938;29;20139;-76
2021/03/18 09:15:29;;;;;;;7.23;1.83;;;6.20;92.60;;;;;;4896706;29;20045;-75
2021/03/18 09:17:59;;;;;;;5.47;1.67;;;6.30;92.60;;;;;;4891572;29;20049;-77
2021/03/18 09:20:29;;;;;;;3.97;1.77;;;6.40;92.60;;;;;;4894448;29;20056;-77
2021/03/18 09:23:23;;;;;;;5.77;1.27;;;6.60;92.60;;;;;;4896045;29;20833;-75
2021/03/18 09:25:53;;;;;;;7.50;1.60;;;6.70;92.50;;;;;;4894179;29;20060;-77
2021/03/18 09:28:20;;;;;;;5.67;2.00;;;6.80;92.40;;;;;;4896345;29;20044;-76
2021/03/18 09:30:55;;;;;;;5.07;1.53;;;6.90;92.40;;;;;;4883073;29;20043;-75
2021/03/18 09:33:32;;;;;;;5.70;1.87;;;6.90;92.30;;;;;;4895658;29;20064;-75
2021/03/18 09:36:19;;;;;;;4.60;1.53;;;7.00;92.30;;;;;;4895933;29;20055;-75
2021/03/18 09:39:12;;;;;;;8.10;2.80;;;7.00;92.30;;;;;;4892903;29;20397;-75
2021/03/18 09:41:45;;;;;;;6.77;2.27;;;7.10;92.20;;;;;;4901986;29;20501;-75
2021/03/18 09:44:17;;;;;;;6.63;3.05;;;7.10;92.20;;;;;;4896778;29;20041;-76
2021/03/18 09:46:55;;;;;;;5.50;1.80;;;7.20;92.60;;;;;;4880172;29;20417;-76
2021/03/18 09:49:30;;;;;;;12.57;3.50;;;7.30;92.20;;;;;;4894953;29;20041;-76
2021/03/18 09:52:04;;;;;;;10.43;3.70;;;7.30;91.90;;;;;;4892808;29;20052;-75
2021/03/18 09:54:31;;;;;;;9.10;3.60;;;7.20;91.90;;;;;;4893495;29;20047;-76
2021/03/18 09:57:02;;;;;;;10.17;3.03;;;7.20;91.90;;;;;;4880892;29;20124;-76
2021/03/18 09:59:29;;;;;;;8.20;3.50;;;7.20;91.90;;;;;;4896991;29;20052;-76
2021/03/18 10:01:57;;;;;;;7.60;2.63;;;7.10;91.90;;;;;;4896276;29;20045;-76
2021/03/18 10:04:24;;;;;;;9.57;2.87;;;7.10;91.90;;;;;;4895549;29;20052;-76
2021/03/18 10:06:57;;;;;;;11.20;2.90;;;7.10;92.00;;;;;;4914736;29;20504;-76
2021/03/18 10:09:36;;;;;;;7.25;2.55;;;7.20;92.10;;;;;;4895838;29;20040;-77
2021/03/18 10:12:05;;;;;;;6.03;2.10;;;7.20;92.00;;;;;;4884772;29;20064;-75
2021/03/18 10:14:34;;;;;;;5.70;2.10;;;7.30;92.00;;;;;;4888131;29;20049;-77
2021/03/18 10:17:10;;;;;;;10.70;2.15;;;7.30;91.90;;;;;;4894753;29;20064;-77
2021/03/18 10:19:48;;;;;;;5.30;1.90;;;7.30;91.90;;;;;;4889616;29;20103;-76
2021/03/18 10:22:16;;;;;;;6.35;1.90;;;7.30;92.10;;;;;;4893104;29;20096;-77
2021/03/18 10:24:43;;;;;;;5.53;2.00;;;7.30;92.10;;;;;;4890862;29;20092;-76
2021/03/18 10:27:15;;;;;;;11.18;3.00;;;7.40;92.10;;;;;;4893914;29;20037;-76
2021/03/18 10:29:42;;;;;;;8.93;3.35;;;7.40;91.70;;;;;;4893642;29;20051;-76
2021/03/18 10:32:14;;;;;;;12.93;2.92;;;7.40;91.70;;;;;;4894482;29;20049;-76
2021/03/18 10:34:52;;;;;;;7.10;2.10;;;7.50;91.80;;;;;;4896919;29;20045;-75
2021/03/18 10:37:32;;;;;;;7.05;2.70;;;7.70;91.80;;;;;;4897959;29;20111;-75
2021/03/18 10:40:30;;;;;;;10.05;2.83;;;7.70;91.60;;;;;;4898036;29;20064;-75
2021/03/18 10:42:59;;;;;;;8.00;3.47;;;7.80;91.50;;;;;;4883596;29;20112;-77
2021/03/18 10:45:29;;;;;;;7.88;2.58;;;7.90;91.50;;;;;;4897766;29;20056;-75
2021/03/18 10:48:06;;;;;;;11.20;2.65;;;8.00;91.50;;;;;;4897611;29;21687;-77
2021/03/18 10:50:36;;;;;;;6.18;2.20;;;8.20;91.50;;;;;;4897319;29;20052;-74
2021/03/18 10:53:09;;;;;;;10.15;3.20;;;8.30;91.40;;;;;;4896369;29;20052;-74
2021/03/18 10:55:47;;;;;;;11.23;2.10;;;8.30;91.20;;;;;;4897891;29;20052;-74
2021/03/18 10:58:20;;;;;;;8.77;1.95;;;8.30;91.40;;;;;;4896636;29;20064;-74
2021/03/18 11:00:55;;;;;;;7.10;1.90;;;8.40;91.20;;;;;;4897598;29;20056;-74
2021/03/18 11:03:45;;;;;;;4.20;1.30;;;8.50;91.30;;;;;;4890086;29;20047;-75
2021/03/18 11:06:18;;;;;;;5.82;2.00;;;8.80;91.10;;;;;;4878552;29;20044;-74
2021/03/18 11:08:50;;;;;;;8.27;2.00;;;8.80;90.80;;;;;;4879403;29;20128;-74
2021/03/18 11:11:22;;;;;;;7.90;1.88;;;8.90;90.70;;;;;;4893676;29;20956;-75
2021/03/18 11:13:50;;;;;;;7.20;1.93;;;9.00;90.80;;;;;;4896018;29;20465;-75
2021/03/18 11:16:25;;;;;;;8.98;2.10;;;9.10;90.60;;;;;;4891908;29;20056;-75
2021/03/18 11:18:59;;;;;;;10.27;2.42;;;9.10;90.10;;;;;;4895621;29;20044;-75
2021/03/18 11:21:38;;;;;;;5.88;1.30;;;9.00;89.80;;;;;;4895913;29;20071;-74
2021/03/18 11:24:13;;;;;;;5.25;1.38;;;9.00;90.20;;;;;;4895809;29;20386;-75
2021/03/18 11:26:43;;;;;;;6.70;1.77;;;9.00;90.30;;;;;;4897407;29;20080;-75
2021/03/18 11:29:15;;;;;;;7.57;2.05;;;8.90;90.00;;;;;;4897118;29;20524;-74
2021/03/18 11:31:44;;;;;;;9.23;2.08;;;8.80;89.60;;;;;;4895450;29;20052;-75
2021/03/18 11:34:20;;;;;;;8.13;1.55;;;8.60;88.80;;;;;;4894190;29;20055;-76
2021/03/18 11:36:49;;;;;;;7.72;1.83;;;8.50;89.50;;;;;;4887358;29;20049;-75
2021/03/18 11:39:19;;;;;;;8.75;1.80;;;8.40;89.50;;;;;;4895681;29;20041;-74
2021/03/18 11:41:48;;;;;;;7.90;2.05;;;8.30;90.00;;;;;;4896079;29;20104;-74
2021/03/18 11:44:15;;;;;;;5.88;0.90;;;8.30;90.00;;;;;;4898633;29;20052;-74
2021/03/18 11:46:42;;;;;;;5.00;1.73;;;8.30;90.10;;;;;;4909545;29;20051;-75
2021/03/18 11:49:09;;;;;;;7.28;1.27;;;8.30;90.20;;;;;;4893826;29;20044;-74
2021/03/18 11:51:35;;;;;;;7.07;1.20;;;8.40;90.10;;;;;;4889129;29;20520;-75
2021/03/18 11:54:02;;;;;;;4.75;1.23;;;8.40;89.90;;;;;;4897278;29;20088;-75
2021/03/18 11:56:29;;;;;;;8.73;1.10;;;8.50;89.70;;;;;;4892255;29;20048;-75
2021/03/18 11:58:56;;;;;;;6.32;1.27;;;8.60;89.80;;;;;;4895649;29;20064;-75
2021/03/18 12:01:23;;;;;;;8.13;1.77;;;8.70;90.10;;;;;;4869037;29;20072;-74
2021/03/18 12:03:51;;;;;;;5.18;1.33;;;8.80;89.50;;;;;;4898434;29;20123;-79
2021/03/18 12:06:19;;;;;;;6.50;1.17;;;8.90;89.70;;;;;;4896808;29;20087;-76
2021/03/18 12:08:48;;;;;;;10.00;1.60;;;9.00;89.30;;;;;;4897138;29;20037;-74
2021/03/18 12:11:15;;;;;;;8.18;2.30;;;8.90;88.40;;;;;;4896628;29;20040;-74
2021/03/18 12:13:41;;;;;;;8.45;2.10;;;8.80;88.00;;;;;;4889721;29;20048;-74
2021/03/18 12:16:11;;;;;;;10.55;1.98;;;8.70;87.90;;;;;;4896085;29;20045;-76
2021/03/18 12:18:41;;;;;;;9.27;1.98;;;8.60;87.70;;;;;;4898630;29;20056;-74
2021/03/18 12:21:07;;;;;;;6.93;1.00;;;8.60;88.10;;;;;;4898362;29;20442;-70
2021/03/18 12:23:35;;;;;;;6.20;1.05;;;8.60;89.10;;;;;;4897709;29;20092;-70
2021/03/18 12:26:01;;;;;;;6.13;1.02;;;8.60;88.70;;;;;;4888350;29;20048;-70
2021/03/18 12:28:28;;;;;;;3.95;0.50;;;8.70;88.90;;;;;;4896516;29;20060;-70
2021/03/18 12:30:54;;;;;;;6.88;1.20;;;8.70;89.00;;;;;;4896380;29;20047;-70
2021/03/18 12:33:22;;;;;;;5.90;1.58;;;8.80;88.90;;;;;;4897345;29;20116;-70
2021/03/18 12:35:51;;;;;;;4.15;0.98;;;8.70;89.00;;;;;;4897503;29;20044;-70
2021/03/18 12:38:21;;;;;;;4.30;0.57;;;8.70;89.00;;;;;;4896433;29;20108;-70
2021/03/18 12:40:52;;;;;;;5.95;0.93;;;8.70;89.00;;;;;;4896280;29;20056;-70
2021/03/18 12:43:20;;;;;;;5.07;0.60;;;8.70;88.90;;;;;;4896278;29;20052;-71
2021/03/18 12:45:47;;;;;;;8.32;1.40;;;8.70;88.90;;;;;;4897209;29;20041;-70
2021/03/18 12:48:14;;;;;;;3.97;0.73;;;8.70;88.60;;;;;;4895647;29;20119;-70
2021/03/18 12:50:41;;;;;;;5.50;0.70;;;8.70;88.50;;;;;;4897179;29;20044;-70
2021/03/18 12:53:08;;;;;;;4.45;1.02;;;8.80;88.70;;;;;;4896014;29;20481;-70
2021/03/18 12:55:36;;;;;;;1.80;0.40;;;9.00;88.90;;;;;;4895716;29;20498;-69
2021/03/18 12:58:03;;;;;;;4.30;0.60;;;9.10;88.80;;;;;;4895000;29;20602;-70
2021/03/18 13:00:34;;;;;;;3.50;0.65;;;9.10;88.50;;;;;;4897372;29;20100;-70
2021/03/18 13:03:01;;;;;;;3.30;0.50;;;9.10;88.30;;;;;;4896933;29;20123;-69
2021/03/18 13:05:28;;;;;;;2.28;0.60;;;9.20;88.70;;;;;;4895843;29;20044;-70
2021/03/18 13:07:55;;;;;;;4.25;0.75;;;9.30;88.70;;;;;;4896838;29;20044;-70
2021/03/18 13:10:23;;;;;;;1.70;0.40;;;9.50;88.60;;;;;;4896949;29;20044;-71
2021/03/18 13:12:51;;;;;;;2.00;0.40;;;9.70;88.50;;;;;;4893354;29;20055;-70
2021/03/18 13:15:17;;;;;;;2.28;0.40;;;9.80;88.30;;;;;;4893889;29;20048;-71
2021/03/18 13:17:45;;;;;;;5.03;0.80;;;9.90;87.90;;;;;;4894797;29;20045;-71
2021/03/18 13:20:18;;;;;;;3.42;0.63;;;9.80;86.90;;;;;;4889021;29;20052;-70